< < Back
Terminal Aerodrome Forecast


Current Version              Previous Versions:   1  2  3  4  5  6  7  8  9  

Terminal Aerodrome Forecast

530
FTUS42 KFFC 262335
TAFMCN
TAF
KMCN 262335Z 2700/2724 31010G20KT P6SM BKN030 OVC100
     FM270300 31008G18KT P6SM SCT030 BKN100
     FM270800 30006KT P6SM OVC025
     FM271600 31010KT P6SM BKN040
     FM271900 32013G23KT P6SM SCT250=



Latest METAR

133
SAUS80 KWBC 270800 CCA
MTRMCN
METAR KMCN 270753Z AUTO 00000KT 10SM CLR 00/M01 A2994 RMK AO2 SLP140
T00001011 TSNO


USA.gov is the U.S. government's official web portal to all federal, state and local government web resources and services.